Terminal Aerodrome Forecast
Issued by NWS Memphis, TN

Home | Current Version | Previous Version | Text Only | Print | Product List | Glossary On
Versions: 1 2 3 4 5 6 7 8 9 10 11 12 13 14 15
109
FTUS44 KMEG 282027 AAA
TAFJBR
TAF AMD
KJBR 282027Z 2820/2918 22008KT P6SM VCTS SCT035CB
     FM282300 22002KT P6SM SCT250
     FM290900 VRB03KT P6SM VCTS SCT010 BKN035CB
      TEMPO 2910/2913 VRB10KT 5SM TSRA BKN009CB
     FM291400 26008KT P6SM VCSH BKN025=

USA.gov is the U.S. government's official web portal to all federal, state and local government web resources and services.